sensor_id;sensor_type;location;lat;lon;timestamp;temperature;humidity
14884;DHT22;7534;50.762;7.000;2023-02-28T00:02:20;-1.40;99.90
14884;DHT22;7534;50.762;7.000;2023-02-28T00:04:46;-1.50;99.90
14884;DHT22;7534;50.762;7.000;2023-02-28T00:07:26;-1.40;99.90
14884;DHT22;7534;50.762;7.000;2023-02-28T00:09:53;-1.40;99.90
14884;DHT22;7534;50.762;7.000;2023-02-28T00:12:19;-1.40;99.90
14884;DHT22;7534;50.762;7.000;2023-02-28T00:14:44;-1.50;99.90
14884;DHT22;7534;50.762;7.000;2023-02-28T00:17:10;-1.50;99.90
14884;DHT22;7534;50.762;7.000;2023-02-28T00:19:36;-1.50;99.90
14884;DHT22;7534;50.762;7.000;2023-02-28T00:22:01;-1.50;99.90
14884;DHT22;7534;50.762;7.000;2023-02-28T00:24:27;-1.60;99.90
14884;DHT22;7534;50.762;7.000;2023-02-28T00:26:52;-1.50;99.90
14884;DHT22;7534;50.762;7.000;2023-02-28T00:29:18;-1.60;99.90
14884;DHT22;7534;50.762;7.000;2023-02-28T00:31:44;-1.60;99.90
14884;DHT22;7534;50.762;7.000;2023-02-28T00:34:09;-1.70;99.90
14884;DHT22;7534;50.762;7.000;2023-02-28T00:36:35;-1.80;99.90
14884;DHT22;7534;50.762;7.000;2023-02-28T00:39:01;-1.80;99.90
14884;DHT22;7534;50.762;7.000;2023-02-28T00:41:26;-1.90;99.90
14884;DHT22;7534;50.762;7.000;2023-02-28T00:43:52;-1.90;99.90
14884;DHT22;7534;50.762;7.000;2023-02-28T00:46:17;-1.90;99.90
14884;DHT22;7534;50.762;7.000;2023-02-28T00:48:43;-1.90;99.90
14884;DHT22;7534;50.762;7.000;2023-02-28T00:51:09;-1.90;99.90
14884;DHT22;7534;50.762;7.000;2023-02-28T00:53:34;-1.90;99.90
14884;DHT22;7534;50.762;7.000;2023-02-28T00:56:00;-2.00;99.90
14884;DHT22;7534;50.762;7.000;2023-02-28T00:58:26;-2.00;99.90
14884;DHT22;7534;50.762;7.000;2023-02-28T01:00:52;-2.00;99.90
14884;DHT22;7534;50.762;7.000;2023-02-28T01:03:19;-2.00;99.90
14884;DHT22;7534;50.762;7.000;2023-02-28T01:05:46;-2.00;99.90
14884;DHT22;7534;50.762;7.000;2023-02-28T01:08:13;-2.00;99.90
14884;DHT22;7534;50.762;7.000;2023-02-28T01:10:39;-2.10;99.90
14884;DHT22;7534;50.762;7.000;2023-02-28T01:13:05;-2.00;99.90
14884;DHT22;7534;50.762;7.000;2023-02-28T01:15:32;-2.10;99.90
14884;DHT22;7534;50.762;7.000;2023-02-28T01:17:58;-2.10;99.90
14884;DHT22;7534;50.762;7.000;2023-02-28T01:20:24;-2.10;99.90
14884;DHT22;7534;50.762;7.000;2023-02-28T01:22:50;-2.20;99.90
14884;DHT22;7534;50.762;7.000;2023-02-28T01:25:15;-2.20;99.90
14884;DHT22;7534;50.762;7.000;2023-02-28T01:27:41;-2.20;99.90
14884;DHT22;7534;50.762;7.000;2023-02-28T01:30:08;-2.10;99.90
14884;DHT22;7534;50.762;7.000;2023-02-28T01:32:36;-2.20;99.90
14884;DHT22;7534;50.762;7.000;2023-02-28T01:35:01;-2.20;99.90
14884;DHT22;7534;50.762;7.000;2023-02-28T01:37:27;-2.20;99.90
14884;DHT22;7534;50.762;7.000;2023-02-28T01:39:53;-2.20;99.90
14884;DHT22;7534;50.762;7.000;2023-02-28T01:42:19;-2.30;99.90
14884;DHT22;7534;50.762;7.000;2023-02-28T01:45:22;-2.20;99.90
14884;DHT22;7534;50.762;7.000;2023-02-28T01:47:55;-2.20;99.90
14884;DHT22;7534;50.762;7.000;2023-02-28T01:50:29;-2.30;99.90
14884;DHT22;7534;50.762;7.000;2023-02-28T01:53:01;-2.40;99.90
14884;DHT22;7534;50.762;7.000;2023-02-28T01:55:32;-2.40;99.90
14884;DHT22;7534;50.762;7.000;2023-02-28T01:58:00;-2.30;99.90
14884;DHT22;7534;50.762;7.000;2023-02-28T02:00:30;-2.30;99.90
14884;DHT22;7534;50.762;7.000;2023-02-28T02:02:59;-2.30;99.90
14884;DHT22;7534;50.762;7.000;2023-02-28T02:05:30;-2.30;99.90
14884;DHT22;7534;50.762;7.000;2023-02-28T02:08:01;-2.30;99.90
14884;DHT22;7534;50.762;7.000;2023-02-28T02:10:39;-2.40;99.90
14884;DHT22;7534;50.762;7.000;2023-02-28T02:16:01;-2.40;99.90
14884;DHT22;7534;50.762;7.000;2023-02-28T02:18:38;-2.40;99.90
14884;DHT22;7534;50.762;7.000;2023-02-28T02:21:13;-2.40;99.90
14884;DHT22;7534;50.762;7.000;2023-02-28T02:24:11;-2.40;99.90
14884;DHT22;7534;50.762;7.000;2023-02-28T02:36:48;-2.60;99.90
14884;DHT22;7534;50.762;7.000;2023-02-28T02:40:04;-2.60;99.90
14884;DHT22;7534;50.762;7.000;2023-02-28T02:45:15;-2.60;99.90
14884;DHT22;7534;50.762;7.000;2023-02-28T02:47:43;-2.70;99.90
14884;DHT22;7534;50.762;7.000;2023-02-28T02:50:19;-2.70;99.90
14884;DHT22;7534;50.762;7.000;2023-02-28T02:52:54;-2.70;99.90
14884;DHT22;7534;50.762;7.000;2023-02-28T02:55:23;-2.70;99.90
14884;DHT22;7534;50.762;7.000;2023-02-28T02:58:01;-2.70;99.90
14884;DHT22;7534;50.762;7.000;2023-02-28T03:00:34;-2.70;99.90
14884;DHT22;7534;50.762;7.000;2023-02-28T03:03:07;-2.60;99.90
14884;DHT22;7534;50.762;7.000;2023-02-28T03:05:50;-2.70;99.90
14884;DHT22;7534;50.762;7.000;2023-02-28T03:08:16;-2.70;99.90
14884;DHT22;7534;50.762;7.000;2023-02-28T03:10:48;-2.80;99.90
14884;DHT22;7534;50.762;7.000;2023-02-28T03:19:19;-2.70;99.90
14884;DHT22;7534;50.762;7.000;2023-02-28T03:24:56;-2.80;99.90
14884;DHT22;7534;50.762;7.000;2023-02-28T03:28:22;-2.90;99.90
14884;DHT22;7534;50.762;7.000;2023-02-28T03:30:48;-2.90;99.90
14884;DHT22;7534;50.762;7.000;2023-02-28T03:33:43;-2.90;99.90
14884;DHT22;7534;50.762;7.000;2023-02-28T03:36:15;-2.90;99.90
14884;DHT22;7534;50.762;7.000;2023-02-28T03:39:00;-2.90;99.90
14884;DHT22;7534;50.762;7.000;2023-02-28T03:41:44;-2.80;99.90
14884;DHT22;7534;50.762;7.000;2023-02-28T03:44:21;-2.90;99.90
14884;DHT22;7534;50.762;7.000;2023-02-28T03:47:14;-2.90;99.90
14884;DHT22;7534;50.762;7.000;2023-02-28T03:49:56;-2.90;99.90
14884;DHT22;7534;50.762;7.000;2023-02-28T03:52:32;-2.90;99.90
14884;DHT22;7534;50.762;7.000;2023-02-28T03:55:09;-2.90;99.90
14884;DHT22;7534;50.762;7.000;2023-02-28T04:00:35;-2.90;99.90
14884;DHT22;7534;50.762;7.000;2023-02-28T04:03:05;-3.00;99.90
14884;DHT22;7534;50.762;7.000;2023-02-28T04:05:32;-3.00;99.90
14884;DHT22;7534;50.762;7.000;2023-02-28T04:08:08;-3.00;99.90
14884;DHT22;7534;50.762;7.000;2023-02-28T04:10:34;-3.10;99.90
14884;DHT22;7534;50.762;7.000;2023-02-28T04:12:59;-3.10;99.90
14884;DHT22;7534;50.762;7.000;2023-02-28T04:15:25;-3.10;99.90
14884;DHT22;7534;50.762;7.000;2023-02-28T04:17:52;-3.10;99.90
14884;DHT22;7534;50.762;7.000;2023-02-28T04:20:18;-3.00;99.90
14884;DHT22;7534;50.762;7.000;2023-02-28T04:22:44;-3.00;99.90
14884;DHT22;7534;50.762;7.000;2023-02-28T04:25:10;-3.00;99.90
14884;DHT22;7534;50.762;7.000;2023-02-28T04:27:35;-3.10;99.90
14884;DHT22;7534;50.762;7.000;2023-02-28T04:30:01;-3.10;99.90
14884;DHT22;7534;50.762;7.000;2023-02-28T04:32:26;-3.20;99.90
14884;DHT22;7534;50.762;7.000;2023-02-28T04:34:52;-3.20;99.90
14884;DHT22;7534;50.762;7.000;2023-02-28T04:37:18;-3.20;99.90
14884;DHT22;7534;50.762;7.000;2023-02-28T04:39:43;-3.10;99.90
14884;DHT22;7534;50.762;7.000;2023-02-28T04:42:10;-3.10;99.90
14884;DHT22;7534;50.762;7.000;2023-02-28T04:44:36;-3.20;99.90
14884;DHT22;7534;50.762;7.000;2023-02-28T04:47:02;-3.20;99.90
14884;DHT22;7534;50.762;7.000;2023-02-28T04:49:27;-3.30;99.90
14884;DHT22;7534;50.762;7.000;2023-02-28T04:51:53;-3.30;99.90
14884;DHT22;7534;50.762;7.000;2023-02-28T04:54:19;-3.30;99.90
14884;DHT22;7534;50.762;7.000;2023-02-28T04:56:45;-3.30;99.90
14884;DHT22;7534;50.762;7.000;2023-02-28T04:59:11;-3.30;99.90
14884;DHT22;7534;50.762;7.000;2023-02-28T05:01:36;-3.30;99.90
14884;DHT22;7534;50.762;7.000;2023-02-28T05:04:03;-3.40;99.90
14884;DHT22;7534;50.762;7.000;2023-02-28T05:06:31;-3.40;99.90
14884;DHT22;7534;50.762;7.000;2023-02-28T05:08:58;-3.40;99.90
14884;DHT22;7534;50.762;7.000;2023-02-28T05:11:31;-3.50;99.90
14884;DHT22;7534;50.762;7.000;2023-02-28T05:14:09;-3.50;99.90
14884;DHT22;7534;50.762;7.000;2023-02-28T05:16:37;-3.50;99.90
14884;DHT22;7534;50.762;7.000;2023-02-28T05:19:03;-3.60;99.90
14884;DHT22;7534;50.762;7.000;2023-02-28T05:24:13;-3.60;99.90
14884;DHT22;7534;50.762;7.000;2023-02-28T05:26:41;-3.70;99.90
14884;DHT22;7534;50.762;7.000;2023-02-28T05:29:09;-3.70;99.90
14884;DHT22;7534;50.762;7.000;2023-02-28T05:31:36;-3.70;99.90
14884;DHT22;7534;50.762;7.000;2023-02-28T05:34:02;-3.60;99.90
14884;DHT22;7534;50.762;7.000;2023-02-28T05:36:29;-3.60;99.90
14884;DHT22;7534;50.762;7.000;2023-02-28T05:38:55;-3.60;99.90
14884;DHT22;7534;50.762;7.000;2023-02-28T05:41:21;-3.60;99.90
14884;DHT22;7534;50.762;7.000;2023-02-28T05:43:47;-3.60;99.90
14884;DHT22;7534;50.762;7.000;2023-02-28T05:46:14;-3.70;99.90
14884;DHT22;7534;50.762;7.000;2023-02-28T05:48:41;-3.70;99.90
14884;DHT22;7534;50.762;7.000;2023-02-28T05:51:09;-3.60;99.90
14884;DHT22;7534;50.762;7.000;2023-02-28T05:53:35;-3.60;99.90
14884;DHT22;7534;50.762;7.000;2023-02-28T05:56:01;-3.60;99.90
14884;DHT22;7534;50.762;7.000;2023-02-28T05:58:27;-3.60;99.90
14884;DHT22;7534;50.762;7.000;2023-02-28T06:00:59;-3.60;99.90
14884;DHT22;7534;50.762;7.000;2023-02-28T06:03:26;-3.70;99.90
14884;DHT22;7534;50.762;7.000;2023-02-28T06:05:52;-3.70;99.90
14884;DHT22;7534;50.762;7.000;2023-02-28T06:08:18;-3.70;99.90
14884;DHT22;7534;50.762;7.000;2023-02-28T06:10:44;-3.40;99.90
14884;DHT22;7534;50.762;7.000;2023-02-28T06:13:10;-3.40;99.90
14884;DHT22;7534;50.762;7.000;2023-02-28T06:15:38;-3.50;99.90
14884;DHT22;7534;50.762;7.000;2023-02-28T06:18:04;-3.50;99.90
14884;DHT22;7534;50.762;7.000;2023-02-28T06:20:29;-3.60;99.90
14884;DHT22;7534;50.762;7.000;2023-02-28T06:22:56;-3.60;99.90
14884;DHT22;7534;50.762;7.000;2023-02-28T06:25:24;-3.60;99.90
14884;DHT22;7534;50.762;7.000;2023-02-28T06:27:54;-3.60;99.90
14884;DHT22;7534;50.762;7.000;2023-02-28T06:30:21;-3.60;99.90
14884;DHT22;7534;50.762;7.000;2023-02-28T06:32:50;-3.70;99.90
14884;DHT22;7534;50.762;7.000;2023-02-28T06:35:16;-3.60;99.90
14884;DHT22;7534;50.762;7.000;2023-02-28T06:37:41;-3.60;99.90
14884;DHT22;7534;50.762;7.000;2023-02-28T06:40:09;-3.50;99.90
14884;DHT22;7534;50.762;7.000;2023-02-28T06:42:35;-3.50;99.90
14884;DHT22;7534;50.762;7.000;2023-02-28T06:45:02;-3.40;99.90
14884;DHT22;7534;50.762;7.000;2023-02-28T06:47:34;-3.40;99.90
14884;DHT22;7534;50.762;7.000;2023-02-28T06:50:05;-3.30;99.90
14884;DHT22;7534;50.762;7.000;2023-02-28T06:52:32;-3.20;99.90
14884;DHT22;7534;50.762;7.000;2023-02-28T06:54:57;-2.90;99.90
14884;DHT22;7534;50.762;7.000;2023-02-28T06:57:28;-2.20;99.90
14884;DHT22;7534;50.762;7.000;2023-02-28T07:00:07;-1.30;99.90
14884;DHT22;7534;50.762;7.000;2023-02-28T07:02:35;-0.70;99.90
14884;DHT22;7534;50.762;7.000;2023-02-28T07:05:01;-0.30;99.90
14884;DHT22;7534;50.762;7.000;2023-02-28T07:07:27;0.30;99.90
14884;DHT22;7534;50.762;7.000;2023-02-28T07:09:53;1.00;99.90
14884;DHT22;7534;50.762;7.000;2023-02-28T07:12:18;1.80;99.90
14884;DHT22;7534;50.762;7.000;2023-02-28T07:14:44;2.50;99.90
14884;DHT22;7534;50.762;7.000;2023-02-28T07:17:11;2.90;99.90
14884;DHT22;7534;50.762;7.000;2023-02-28T07:19:38;3.40;99.90
14884;DHT22;7534;50.762;7.000;2023-02-28T07:22:04;3.90;99.90
14884;DHT22;7534;50.762;7.000;2023-02-28T07:24:30;4.00;99.90
14884;DHT22;7534;50.762;7.000;2023-02-28T07:26:56;4.20;99.90
14884;DHT22;7534;50.762;7.000;2023-02-28T07:29:22;4.80;99.90
14884;DHT22;7534;50.762;7.000;2023-02-28T07:31:47;5.90;99.90
14884;DHT22;7534;50.762;7.000;2023-02-28T07:34:15;7.00;99.90
14884;DHT22;7534;50.762;7.000;2023-02-28T07:36:41;8.30;99.90
14884;DHT22;7534;50.762;7.000;2023-02-28T07:39:07;9.90;98.30
14884;DHT22;7534;50.762;7.000;2023-02-28T07:41:35;11.70;93.20
14884;DHT22;7534;50.762;7.000;2023-02-28T07:46:30;15.50;66.20
14884;DHT22;7534;50.762;7.000;2023-02-28T07:49:00;16.60;52.30
14884;DHT22;7534;50.762;7.000;2023-02-28T07:51:28;17.60;46.00
14884;DHT22;7534;50.762;7.000;2023-02-28T07:53:54;18.50;41.20
14884;DHT22;7534;50.762;7.000;2023-02-28T07:56:20;19.00;36.40
14884;DHT22;7534;50.762;7.000;2023-02-28T07:58:46;19.20;36.50
14884;DHT22;7534;50.762;7.000;2023-02-28T08:01:12;19.20;33.90
14884;DHT22;7534;50.762;7.000;2023-02-28T08:03:39;19.70;32.70
14884;DHT22;7534;50.762;7.000;2023-02-28T08:06:08;20.10;32.40
14884;DHT22;7534;50.762;7.000;2023-02-28T08:08:41;20.40;31.10
14884;DHT22;7534;50.762;7.000;2023-02-28T08:11:07;21.10;31.20
14884;DHT22;7534;50.762;7.000;2023-02-28T08:13:33;20.50;28.90
14884;DHT22;7534;50.762;7.000;2023-02-28T08:16:01;19.40;30.10
14884;DHT22;7534;50.762;7.000;2023-02-28T08:18:27;19.50;31.00
14884;DHT22;7534;50.762;7.000;2023-02-28T08:20:53;18.80;33.30
14884;DHT22;7534;50.762;7.000;2023-02-28T08:23:19;16.80;31.30
14884;DHT22;7534;50.762;7.000;2023-02-28T08:25:44;14.50;31.70
14884;DHT22;7534;50.762;7.000;2023-02-28T08:28:17;13.00;33.80
14884;DHT22;7534;50.762;7.000;2023-02-28T08:30:43;11.20;36.70
14884;DHT22;7534;50.762;7.000;2023-02-28T08:33:08;10.30;41.50
14884;DHT22;7534;50.762;7.000;2023-02-28T08:35:36;9.60;44.80
14884;DHT22;7534;50.762;7.000;2023-02-28T08:38:02;9.30;47.70
14884;DHT22;7534;50.762;7.000;2023-02-28T08:40:28;9.30;47.10
14884;DHT22;7534;50.762;7.000;2023-02-28T08:42:53;8.70;47.70
14884;DHT22;7534;50.762;7.000;2023-02-28T08:45:19;8.30;49.90
14884;DHT22;7534;50.762;7.000;2023-02-28T08:47:45;8.90;48.90
14884;DHT22;7534;50.762;7.000;2023-02-28T08:50:11;9.20;47.20
14884;DHT22;7534;50.762;7.000;2023-02-28T08:52:38;9.80;46.50
14884;DHT22;7534;50.762;7.000;2023-02-28T08:55:04;9.80;45.50
14884;DHT22;7534;50.762;7.000;2023-02-28T08:57:30;9.50;45.60
14884;DHT22;7534;50.762;7.000;2023-02-28T08:59:56;9.70;44.30
14884;DHT22;7534;50.762;7.000;2023-02-28T09:02:22;10.60;41.40
14884;DHT22;7534;50.762;7.000;2023-02-28T09:04:48;9.50;42.00
14884;DHT22;7534;50.762;7.000;2023-02-28T09:07:14;9.80;41.60
14884;DHT22;7534;50.762;7.000;2023-02-28T09:09:40;9.30;40.40
14884;DHT22;7534;50.762;7.000;2023-02-28T09:12:19;8.70;41.50
14884;DHT22;7534;50.762;7.000;2023-02-28T09:14:52;9.10;42.90
14884;DHT22;7534;50.762;7.000;2023-02-28T09:17:19;9.40;42.30
14884;DHT22;7534;50.762;7.000;2023-02-28T09:19:48;9.80;40.30
14884;DHT22;7534;50.762;7.000;2023-02-28T09:22:14;10.10;37.20
14884;DHT22;7534;50.762;7.000;2023-02-28T09:24:40;9.50;39.00
14884;DHT22;7534;50.762;7.000;2023-02-28T09:27:06;10.00;38.30
14884;DHT22;7534;50.762;7.000;2023-02-28T09:29:33;9.70;38.00
14884;DHT22;7534;50.762;7.000;2023-02-28T09:31:59;9.20;39.20
14884;DHT22;7534;50.762;7.000;2023-02-28T09:34:26;8.60;39.40
14884;DHT22;7534;50.762;7.000;2023-02-28T09:36:52;8.00;40.90
14884;DHT22;7534;50.762;7.000;2023-02-28T09:39:22;7.80;41.90
14884;DHT22;7534;50.762;7.000;2023-02-28T09:41:51;7.70;42.00
14884;DHT22;7534;50.762;7.000;2023-02-28T09:46:57;8.80;41.80
14884;DHT22;7534;50.762;7.000;2023-02-28T09:49:36;8.70;39.90
14884;DHT22;7534;50.762;7.000;2023-02-28T09:52:10;8.80;39.90
14884;DHT22;7534;50.762;7.000;2023-02-28T09:54:41;8.90;38.90
14884;DHT22;7534;50.762;7.000;2023-02-28T09:57:46;8.40;39.60
14884;DHT22;7534;50.762;7.000;2023-02-28T10:06:06;7.90;41.10
14884;DHT22;7534;50.762;7.000;2023-02-28T10:09:41;7.90;41.90
14884;DHT22;7534;50.762;7.000;2023-02-28T10:11:50;8.00;42.00
14884;DHT22;7534;50.762;7.000;2023-02-28T10:14:22;7.70;42.90
14884;DHT22;7534;50.762;7.000;2023-02-28T10:17:02;7.70;43.40
14884;DHT22;7534;50.762;7.000;2023-02-28T10:22:19;7.60;41.70
14884;DHT22;7534;50.762;7.000;2023-02-28T10:24:50;7.40;42.80
14884;DHT22;7534;50.762;7.000;2023-02-28T10:27:19;7.10;43.30
14884;DHT22;7534;50.762;7.000;2023-02-28T10:29:57;6.60;44.00
14884;DHT22;7534;50.762;7.000;2023-02-28T10:32:34;6.10;45.20
14884;DHT22;7534;50.762;7.000;2023-02-28T10:37:42;6.00;47.40
14884;DHT22;7534;50.762;7.000;2023-02-28T10:43:05;5.90;46.00
14884;DHT22;7534;50.762;7.000;2023-02-28T10:45:34;6.10;46.00
14884;DHT22;7534;50.762;7.000;2023-02-28T10:48:24;6.10;45.40
14884;DHT22;7534;50.762;7.000;2023-02-28T10:50:55;5.80;46.50
14884;DHT22;7534;50.762;7.000;2023-02-28T10:53:30;5.60;46.80
14884;DHT22;7534;50.762;7.000;2023-02-28T10:56:03;5.50;47.00
14884;DHT22;7534;50.762;7.000;2023-02-28T10:58:47;5.40;47.50
14884;DHT22;7534;50.762;7.000;2023-02-28T11:01:44;5.70;48.80
14884;DHT22;7534;50.762;7.000;2023-02-28T11:07:18;5.90;47.40
14884;DHT22;7534;50.762;7.000;2023-02-28T11:09:49;6.30;46.50
14884;DHT22;7534;50.762;7.000;2023-02-28T11:14:54;6.10;46.10
14884;DHT22;7534;50.762;7.000;2023-02-28T11:17:28;6.10;45.50
14884;DHT22;7534;50.762;7.000;2023-02-28T11:19:59;6.10;44.80
14884;DHT22;7534;50.762;7.000;2023-02-28T11:22:32;6.10;45.60
14884;DHT22;7534;50.762;7.000;2023-02-28T11:25:09;6.30;43.70
14884;DHT22;7534;50.762;7.000;2023-02-28T11:27:55;6.30;43.80
14884;DHT22;7534;50.762;7.000;2023-02-28T11:32:56;6.30;44.90
14884;DHT22;7534;50.762;7.000;2023-02-28T11:35:38;6.50;44.60
14884;DHT22;7534;50.762;7.000;2023-02-28T11:38:09;6.60;44.80
14884;DHT22;7534;50.762;7.000;2023-02-28T11:40:59;6.60;43.30
14884;DHT22;7534;50.762;7.000;2023-02-28T11:43:44;6.70;43.50
14884;DHT22;7534;50.762;7.000;2023-02-28T11:50:18;6.50;45.90
14884;DHT22;7534;50.762;7.000;2023-02-28T11:58:15;6.60;44.00
14884;DHT22;7534;50.762;7.000;2023-02-28T12:06:36;6.60;44.70
14884;DHT22;7534;50.762;7.000;2023-02-28T12:18:32;6.90;44.10
14884;DHT22;7534;50.762;7.000;2023-02-28T12:21:31;6.70;43.40
14884;DHT22;7534;50.762;7.000;2023-02-28T12:27:01;6.90;42.90
14884;DHT22;7534;50.762;7.000;2023-02-28T12:29:50;6.90;42.90
14884;DHT22;7534;50.762;7.000;2023-02-28T12:32:42;6.90;44.30
14884;DHT22;7534;50.762;7.000;2023-02-28T12:35:36;7.10;44.30
14884;DHT22;7534;50.762;7.000;2023-02-28T12:38:38;7.20;43.10
14884;DHT22;7534;50.762;7.000;2023-02-28T12:43:49;7.00;43.60
14884;DHT22;7534;50.762;7.000;2023-02-28T12:46:41;7.20;42.90
14884;DHT22;7534;50.762;7.000;2023-02-28T12:49:13;7.20;43.80
14884;DHT22;7534;50.762;7.000;2023-02-28T12:51:43;7.40;45.20
14884;DHT22;7534;50.762;7.000;2023-02-28T12:54:19;7.50;43.90
14884;DHT22;7534;50.762;7.000;2023-02-28T12:56:53;7.00;44.10
14884;DHT22;7534;50.762;7.000;2023-02-28T12:59:53;6.80;43.40
14884;DHT22;7534;50.762;7.000;2023-02-28T13:02:49;6.80;44.50
14884;DHT22;7534;50.762;7.000;2023-02-28T13:08:51;7.00;45.60
14884;DHT22;7534;50.762;7.000;2023-02-28T13:11:32;7.10;43.60
14884;DHT22;7534;50.762;7.000;2023-02-28T13:14:16;6.90;45.00
14884;DHT22;7534;50.762;7.000;2023-02-28T13:19:34;7.20;43.30
14884;DHT22;7534;50.762;7.000;2023-02-28T13:22:03;7.30;44.40
14884;DHT22;7534;50.762;7.000;2023-02-28T13:24:56;7.20;45.20
14884;DHT22;7534;50.762;7.000;2023-02-28T13:27:31;7.30;43.90
14884;DHT22;7534;50.762;7.000;2023-02-28T13:38:41;7.00;46.70
14884;DHT22;7534;50.762;7.000;2023-02-28T13:44:06;7.00;48.10
14884;DHT22;7534;50.762;7.000;2023-02-28T14:06:28;6.90;49.40
14884;DHT22;7534;50.762;7.000;2023-02-28T14:09:06;7.00;48.90
14884;DHT22;7534;50.762;7.000;2023-02-28T14:18:15;6.90;46.40
14884;DHT22;7534;50.762;7.000;2023-02-28T14:21:01;7.10;47.10
14884;DHT22;7534;50.762;7.000;2023-02-28T14:23:56;7.20;47.90
14884;DHT22;7534;50.762;7.000;2023-02-28T14:29:46;7.30;46.70
14884;DHT22;7534;50.762;7.000;2023-02-28T14:32:50;7.10;46.50
14884;DHT22;7534;50.762;7.000;2023-02-28T14:38:36;7.10;46.80
14884;DHT22;7534;50.762;7.000;2023-02-28T14:41:35;7.10;46.90
14884;DHT22;7534;50.762;7.000;2023-02-28T14:44:21;7.10;48.20
14884;DHT22;7534;50.762;7.000;2023-02-28T14:46:51;7.40;49.10
14884;DHT22;7534;50.762;7.000;2023-02-28T14:54:42;7.20;48.20
14884;DHT22;7534;50.762;7.000;2023-02-28T14:57:28;7.20;47.60
14884;DHT22;7534;50.762;7.000;2023-02-28T15:02:43;7.10;48.70
14884;DHT22;7534;50.762;7.000;2023-02-28T15:07:38;7.10;48.30
14884;DHT22;7534;50.762;7.000;2023-02-28T15:12:37;6.90;48.20
14884;DHT22;7534;50.762;7.000;2023-02-28T15:15:06;6.80;49.40
14884;DHT22;7534;50.762;7.000;2023-02-28T15:17:40;6.80;49.60
14884;DHT22;7534;50.762;7.000;2023-02-28T15:20:13;6.90;49.60
14884;DHT22;7534;50.762;7.000;2023-02-28T15:22:41;7.00;49.20
14884;DHT22;7534;50.762;7.000;2023-02-28T15:25:14;6.90;48.40
14884;DHT22;7534;50.762;7.000;2023-02-28T15:27:52;6.80;48.30
14884;DHT22;7534;50.762;7.000;2023-02-28T15:30:27;6.90;49.60
14884;DHT22;7534;50.762;7.000;2023-02-28T15:33:04;6.90;48.60
14884;DHT22;7534;50.762;7.000;2023-02-28T15:35:43;7.10;48.00
14884;DHT22;7534;50.762;7.000;2023-02-28T15:38:14;7.20;47.90
14884;DHT22;7534;50.762;7.000;2023-02-28T15:40:55;7.30;47.40
14884;DHT22;7534;50.762;7.000;2023-02-28T15:43:37;7.10;47.80
14884;DHT22;7534;50.762;7.000;2023-02-28T15:46:08;7.10;48.40
14884;DHT22;7534;50.762;7.000;2023-02-28T15:48:43;7.00;48.90
14884;DHT22;7534;50.762;7.000;2023-02-28T15:51:24;7.30;48.70
14884;DHT22;7534;50.762;7.000;2023-02-28T15:54:07;7.20;49.20
14884;DHT22;7534;50.762;7.000;2023-02-28T15:56:47;7.40;49.80
14884;DHT22;7534;50.762;7.000;2023-02-28T15:59:26;7.50;49.30
14884;DHT22;7534;50.762;7.000;2023-02-28T16:02:13;7.30;49.20
14884;DHT22;7534;50.762;7.000;2023-02-28T16:07:32;7.10;48.90
14884;DHT22;7534;50.762;7.000;2023-02-28T16:09:58;7.00;49.30
14884;DHT22;7534;50.762;7.000;2023-02-28T16:12:31;7.20;50.70
14884;DHT22;7534;50.762;7.000;2023-02-28T16:15:01;7.10;50.50
14884;DHT22;7534;50.762;7.000;2023-02-28T16:17:37;7.20;50.70
14884;DHT22;7534;50.762;7.000;2023-02-28T16:20:15;7.20;50.70
14884;DHT22;7534;50.762;7.000;2023-02-28T16:22:45;7.20;50.70
14884;DHT22;7534;50.762;7.000;2023-02-28T16:25:13;7.00;50.10
14884;DHT22;7534;50.762;7.000;2023-02-28T16:27:40;6.90;51.00
14884;DHT22;7534;50.762;7.000;2023-02-28T16:30:16;6.80;51.90
14884;DHT22;7534;50.762;7.000;2023-02-28T16:32:50;6.70;52.90
14884;DHT22;7534;50.762;7.000;2023-02-28T16:35:18;6.70;51.10
14884;DHT22;7534;50.762;7.000;2023-02-28T16:37:45;6.50;52.00
14884;DHT22;7534;50.762;7.000;2023-02-28T16:40:24;6.50;53.30
14884;DHT22;7534;50.762;7.000;2023-02-28T16:42:52;6.30;54.60
14884;DHT22;7534;50.762;7.000;2023-02-28T16:45:24;6.10;55.90
14884;DHT22;7534;50.762;7.000;2023-02-28T16:47:54;6.10;56.30
14884;DHT22;7534;50.762;7.000;2023-02-28T16:50:30;6.10;56.10
14884;DHT22;7534;50.762;7.000;2023-02-28T16:52:58;6.00;56.40
14884;DHT22;7534;50.762;7.000;2023-02-28T16:55:25;5.80;56.00
14884;DHT22;7534;50.762;7.000;2023-02-28T16:57:59;5.70;56.60
14884;DHT22;7534;50.762;7.000;2023-02-28T17:00:28;5.60;56.60
14884;DHT22;7534;50.762;7.000;2023-02-28T17:02:56;5.40;58.20
14884;DHT22;7534;50.762;7.000;2023-02-28T17:05:25;5.30;58.20
14884;DHT22;7534;50.762;7.000;2023-02-28T17:07:58;5.20;59.20
14884;DHT22;7534;50.762;7.000;2023-02-28T17:10:26;5.20;60.00
14884;DHT22;7534;50.762;7.000;2023-02-28T17:12:52;5.10;60.40
14884;DHT22;7534;50.762;7.000;2023-02-28T17:15:23;4.90;61.50
14884;DHT22;7534;50.762;7.000;2023-02-28T17:17:51;5.10;61.80
14884;DHT22;7534;50.762;7.000;2023-02-28T17:20:21;5.00;60.90
14884;DHT22;7534;50.762;7.000;2023-02-28T17:22:54;4.90;61.80
14884;DHT22;7534;50.762;7.000;2023-02-28T17:25:22;4.80;62.00
14884;DHT22;7534;50.762;7.000;2023-02-28T17:27:48;4.60;63.30
14884;DHT22;7534;50.762;7.000;2023-02-28T17:30:45;4.60;63.70
14884;DHT22;7534;50.762;7.000;2023-02-28T17:33:25;4.60;63.80
14884;DHT22;7534;50.762;7.000;2023-02-28T17:36:24;4.60;64.90
14884;DHT22;7534;50.762;7.000;2023-02-28T17:39:14;4.40;65.40
14884;DHT22;7534;50.762;7.000;2023-02-28T17:42:18;4.20;65.20
14884;DHT22;7534;50.762;7.000;2023-02-28T17:45:04;4.10;66.60
14884;DHT22;7534;50.762;7.000;2023-02-28T17:48:01;3.90;67.90
14884;DHT22;7534;50.762;7.000;2023-02-28T17:50:30;3.70;69.70
14884;DHT22;7534;50.762;7.000;2023-02-28T17:52:57;3.50;71.10
14884;DHT22;7534;50.762;7.000;2023-02-28T17:55:37;3.40;72.60
14884;DHT22;7534;50.762;7.000;2023-02-28T17:58:08;3.20;73.70
14884;DHT22;7534;50.762;7.000;2023-02-28T18:00:43;3.00;74.70
14884;DHT22;7534;50.762;7.000;2023-02-28T18:03:10;2.90;75.70
14884;DHT22;7534;50.762;7.000;2023-02-28T18:05:38;2.90;77.30
14884;DHT22;7534;50.762;7.000;2023-02-28T18:08:04;2.70;78.70
14884;DHT22;7534;50.762;7.000;2023-02-28T18:10:54;2.50;79.80
14884;DHT22;7534;50.762;7.000;2023-02-28T18:13:53;2.50;81.60
14884;DHT22;7534;50.762;7.000;2023-02-28T18:16:58;2.40;83.00
14884;DHT22;7534;50.762;7.000;2023-02-28T18:19:54;2.20;83.60
14884;DHT22;7534;50.762;7.000;2023-02-28T18:22:21;2.00;84.30
14884;DHT22;7534;50.762;7.000;2023-02-28T18:24:48;2.00;85.30
14884;DHT22;7534;50.762;7.000;2023-02-28T18:27:13;1.80;85.60
14884;DHT22;7534;50.762;7.000;2023-02-28T18:29:39;1.70;86.50
14884;DHT22;7534;50.762;7.000;2023-02-28T18:32:07;1.60;87.10
14884;DHT22;7534;50.762;7.000;2023-02-28T18:34:34;1.50;87.50
14884;DHT22;7534;50.762;7.000;2023-02-28T18:36:59;1.50;88.10
14884;DHT22;7534;50.762;7.000;2023-02-28T18:39:26;1.40;88.80
14884;DHT22;7534;50.762;7.000;2023-02-28T18:41:52;1.30;88.90
14884;DHT22;7534;50.762;7.000;2023-02-28T18:44:19;1.30;89.70
14884;DHT22;7534;50.762;7.000;2023-02-28T18:46:48;1.20;90.30
14884;DHT22;7534;50.762;7.000;2023-02-28T18:49:16;1.20;90.70
14884;DHT22;7534;50.762;7.000;2023-02-28T18:51:43;1.10;91.20
14884;DHT22;7534;50.762;7.000;2023-02-28T18:54:11;1.10;91.10
14884;DHT22;7534;50.762;7.000;2023-02-28T18:56:38;1.10;91.20
14884;DHT22;7534;50.762;7.000;2023-02-28T18:59:04;1.00;91.30
14884;DHT22;7534;50.762;7.000;2023-02-28T19:01:31;1.00;91.50